createdAt,value
2018-12-30T00:00:11.550Z,5.30
2018-12-30T00:06:15.783Z,5.60
2018-12-30T00:12:20.343Z,5.50
2018-12-30T00:18:24.705Z,5.50
2018-12-30T00:24:28.921Z,5.40
2018-12-30T00:30:33.293Z,4.90
2018-12-30T00:36:37.554Z,5.30
2018-12-30T00:42:42.265Z,5.40
2018-12-30T00:48:46.564Z,5.30
2018-12-30T00:54:50.820Z,4.50
2018-12-30T01:00:55.033Z,4.80
2018-12-30T01:06:59.309Z,4.80
2018-12-30T01:13:03.579Z,4.70
2018-12-30T01:19:07.841Z,4.80
2018-12-30T01:25:12.222Z,4.80
2018-12-30T01:31:16.416Z,4.80
2018-12-30T01:37:20.685Z,4.40
2018-12-30T01:43:24.938Z,4.20
2018-12-30T01:49:29.121Z,4.20
2018-12-30T01:55:33.574Z,4.20
2018-12-30T02:01:37.944Z,4.10
2018-12-30T02:07:42.113Z,4.10
2018-12-30T02:13:46.383Z,4.00
2018-12-30T02:19:50.649Z,4.00
2018-12-30T02:25:54.936Z,4.40
2018-12-30T02:31:59.152Z,4.20
2018-12-30T02:38:03.426Z,4.50
2018-12-30T02:44:07.905Z,4.50
2018-12-30T02:50:12.095Z,4.40
2018-12-30T02:56:16.295Z,4.60
2018-12-30T03:02:20.551Z,4.40
2018-12-30T03:08:25.027Z,4.40
2018-12-30T03:14:29.289Z,4.40
2018-12-30T03:20:33.551Z,4.40
2018-12-30T03:26:37.777Z,4.40
2018-12-30T03:32:41.961Z,4.30
2018-12-30T03:38:46.237Z,4.40
2018-12-30T03:44:50.932Z,4.50
2018-12-30T03:50:55.295Z,4.50
2018-12-30T03:56:59.556Z,4.40
2018-12-30T04:03:04.073Z,4.30
2018-12-30T04:09:08.526Z,4.40
2018-12-30T04:15:12.767Z,4.50
2018-12-30T04:21:16.999Z,4.50
2018-12-30T04:27:23.823Z,4.50
2018-12-30T04:33:35.941Z,4.50
2018-12-30T04:39:40.143Z,4.50
2018-12-30T04:45:44.405Z,4.50
2018-12-30T04:51:48.655Z,4.30
2018-12-30T04:57:52.839Z,4.30
2018-12-30T05:03:57.185Z,4.50
2018-12-30T05:10:01.402Z,4.40
2018-12-30T05:16:06.839Z,4.40
2018-12-30T05:22:14.019Z,4.40
2018-12-30T05:28:18.279Z,4.70
2018-12-30T05:34:22.482Z,4.70
2018-12-30T05:40:26.758Z,4.70
2018-12-30T05:46:31.537Z,4.80
2018-12-30T05:52:41.740Z,4.80
2018-12-30T05:58:41.650Z,4.70
2018-12-30T06:04:45.910Z,4.70
2018-12-30T06:10:50.198Z,4.70
2018-12-30T06:16:54.422Z,4.70
2018-12-30T06:22:58.614Z,4.80
2018-12-30T06:29:03.071Z,4.90
2018-12-30T06:35:07.354Z,4.90
2018-12-30T06:41:11.557Z,4.80
2018-12-30T06:47:15.743Z,5.00
2018-12-30T06:53:19.975Z,5.00
2018-12-30T06:59:24.193Z,5.00
2018-12-30T07:05:28.381Z,4.90
2018-12-30T07:11:32.568Z,4.90
2018-12-30T07:17:36.753Z,5.00
2018-12-30T07:23:40.955Z,5.00
2018-12-30T07:29:45.167Z,5.00
2018-12-30T07:35:49.583Z,5.10
2018-12-30T07:41:54.773Z,5.20
2018-12-30T07:47:59.152Z,5.30
2018-12-30T07:54:03.375Z,5.30
2018-12-30T08:00:07.889Z,5.20
2018-12-30T08:06:12.069Z,5.30
2018-12-30T08:12:16.483Z,5.40
2018-12-30T08:18:20.708Z,5.50
2018-12-30T08:24:24.944Z,5.50
2018-12-30T08:30:29.156Z,5.50
2018-12-30T08:36:33.343Z,5.60
2018-12-30T08:42:37.535Z,5.60
2018-12-30T08:48:41.814Z,5.60
2018-12-30T08:54:46.053Z,5.70
2018-12-30T09:00:53.605Z,5.80
2018-12-30T09:06:57.826Z,5.90
2018-12-30T09:13:03.285Z,6.10
2018-12-30T09:19:07.596Z,6.10
2018-12-30T09:25:11.773Z,6.20
2018-12-30T09:31:16.091Z,6.20
2018-12-30T09:37:20.274Z,6.20
2018-12-30T09:43:24.463Z,6.30
2018-12-30T09:49:28.631Z,6.40
2018-12-30T09:55:32.819Z,6.50
2018-12-30T10:01:38.351Z,6.50
2018-12-30T10:07:42.603Z,6.50
2018-12-30T10:13:46.784Z,6.50
2018-12-30T10:19:51.053Z,6.60
2018-12-30T10:25:55.255Z,6.70
2018-12-30T10:31:59.801Z,6.90
2018-12-30T10:38:04.075Z,7.00
2018-12-30T10:44:08.559Z,7.20
2018-12-30T10:50:12.798Z,7.40
2018-12-30T10:56:16.959Z,7.50
2018-12-30T11:02:21.207Z,7.60
2018-12-30T11:08:25.431Z,7.80
2018-12-30T11:14:29.627Z,8.00
2018-12-30T11:20:33.830Z,8.10
2018-12-30T11:26:38.022Z,8.20
2018-12-30T11:32:42.305Z,8.30
2018-12-30T11:38:46.498Z,8.30
2018-12-30T11:44:50.676Z,8.40
2018-12-30T11:50:54.957Z,8.50
2018-12-30T11:56:59.134Z,8.60
2018-12-30T12:03:03.467Z,8.80
2018-12-30T12:09:08.430Z,8.80
2018-12-30T12:15:12.667Z,8.80
2018-12-30T12:21:16.889Z,8.90
2018-12-30T12:27:21.061Z,9.00
2018-12-30T12:33:25.413Z,9.10
2018-12-30T12:39:29.604Z,9.20
2018-12-30T12:45:33.949Z,9.30
2018-12-30T12:51:38.229Z,9.30
2018-12-30T12:57:42.503Z,9.40
2018-12-30T13:03:46.701Z,9.40
2018-12-30T13:09:50.891Z,9.50
2018-12-30T13:15:55.173Z,9.50
2018-12-30T13:21:59.351Z,9.60
2018-12-30T13:28:03.761Z,9.60
2018-12-30T13:34:08.139Z,9.60
2018-12-30T13:40:12.334Z,9.60
2018-12-30T13:46:16.560Z,9.60
2018-12-30T13:52:20.721Z,9.60
2018-12-30T13:58:24.911Z,9.60
2018-12-30T14:04:29.304Z,9.60
2018-12-30T14:10:33.833Z,9.60
2018-12-30T14:16:38.042Z,9.70
2018-12-30T14:22:43.113Z,9.70
2018-12-30T14:28:47.382Z,9.80
2018-12-30T14:34:51.612Z,9.70
2018-12-30T14:40:55.785Z,9.70
2018-12-30T14:46:59.970Z,9.70
2018-12-30T14:53:04.255Z,9.80
2018-12-30T14:59:08.418Z,9.80
2018-12-30T15:05:12.872Z,9.80
2018-12-30T15:11:17.044Z,9.90
2018-12-30T15:17:21.370Z,9.70
2018-12-30T15:23:25.572Z,9.60
2018-12-30T15:29:30.058Z,9.60
2018-12-30T15:35:34.237Z,9.60
2018-12-30T15:41:38.480Z,9.50
2018-12-30T15:47:42.669Z,9.80
2018-12-30T15:53:47.137Z,10.10
2018-12-30T15:59:51.345Z,9.90
2018-12-30T16:05:57.832Z,9.80
2018-12-30T16:12:01.529Z,9.80
2018-12-30T16:18:05.711Z,9.90
2018-12-30T16:24:09.908Z,9.60
2018-12-30T16:30:14.102Z,9.70
2018-12-30T16:36:21.389Z,9.60
2018-12-30T16:42:25.661Z,10.20
2018-12-30T16:48:29.973Z,10.50
2018-12-30T16:54:34.245Z,9.80
2018-12-30T17:00:38.446Z,9.50
2018-12-30T17:06:42.719Z,9.50
2018-12-30T17:12:47.001Z,9.50
2018-12-30T17:18:55.988Z,9.50
2018-12-30T17:24:57.076Z,9.40
2018-12-30T17:31:01.391Z,9.40
2018-12-30T17:37:05.694Z,9.30
2018-12-30T17:43:10.037Z,9.30
2018-12-30T17:49:14.248Z,9.50
2018-12-30T17:55:18.447Z,9.40
2018-12-30T18:01:22.720Z,9.50
2018-12-30T18:07:27.106Z,9.50
2018-12-30T18:13:31.298Z,9.50
2018-12-30T18:19:35.539Z,9.40
2018-12-30T18:25:39.722Z,9.40
2018-12-30T18:31:44.019Z,9.40
2018-12-30T18:37:49.802Z,9.40
2018-12-30T18:44:11.762Z,9.30
2018-12-30T18:50:33.616Z,9.30
2018-12-30T18:56:55.544Z,9.20
2018-12-30T19:02:59.727Z,9.20
2018-12-30T19:09:05.624Z,9.20
2018-12-30T19:15:09.827Z,9.20
2018-12-30T19:21:14.013Z,9.20
2018-12-30T19:27:18.207Z,9.20
2018-12-30T19:33:22.502Z,9.30
2018-12-30T19:39:44.844Z,9.30
2018-12-30T19:45:49.188Z,9.30
2018-12-30T19:51:53.703Z,9.30
2018-12-30T19:57:58.312Z,9.40
2018-12-30T20:04:02.999Z,9.40
2018-12-30T20:10:08.231Z,9.30
2018-12-30T20:16:12.728Z,9.30
2018-12-30T20:22:17.267Z,9.30
2018-12-30T20:28:21.857Z,9.30
2018-12-30T20:34:26.757Z,9.30
2018-12-30T20:40:31.672Z,9.40
2018-12-30T20:46:36.246Z,9.40
2018-12-30T20:52:45.137Z,9.40
2018-12-30T20:58:49.333Z,9.50
2018-12-30T21:04:53.589Z,9.40
2018-12-30T21:10:57.768Z,9.40
2018-12-30T21:17:02.009Z,9.40
2018-12-30T21:23:06.201Z,9.40
2018-12-30T21:29:10.467Z,9.40
2018-12-30T21:35:14.633Z,9.40
2018-12-30T21:41:18.853Z,9.40
2018-12-30T21:47:23.048Z,9.30
2018-12-30T21:53:27.222Z,9.30
2018-12-30T21:59:31.417Z,9.30
2018-12-30T22:05:35.681Z,9.30
2018-12-30T22:11:39.973Z,9.30
2018-12-30T22:17:44.226Z,9.30
2018-12-30T22:23:48.506Z,9.40
2018-12-30T22:29:52.702Z,9.40
2018-12-30T22:35:57.220Z,9.30
2018-12-30T22:42:01.436Z,9.40
2018-12-30T22:48:05.662Z,9.50
2018-12-30T22:54:10.015Z,9.40
2018-12-30T23:00:25.942Z,9.40
2018-12-30T23:06:30.126Z,9.50
2018-12-30T23:12:34.420Z,9.50
2018-12-30T23:18:38.614Z,9.60
2018-12-30T23:24:42.851Z,9.50
2018-12-30T23:30:47.038Z,9.50
2018-12-30T23:36:51.234Z,9.70
2018-12-30T23:42:55.440Z,9.60
2018-12-30T23:48:59.625Z,9.50
2018-12-30T23:55:03.976Z,9.50
